sensor_id;sensor_type;location;lat;lon;timestamp;P1;durP1;ratioP1;P2;durP2;ratioP2
51459;SDS011;37534;39.772;2.718;2022-09-02T00:00:33;14.95;;;5.18;;
51459;SDS011;37534;39.772;2.718;2022-09-02T00:02:58;15.25;;;5.65;;
51459;SDS011;37534;39.772;2.718;2022-09-02T00:05:24;31.65;;;5.75;;
51459;SDS011;37534;39.772;2.718;2022-09-02T00:07:50;23.70;;;5.43;;
51459;SDS011;37534;39.772;2.718;2022-09-02T00:10:15;10.13;;;4.32;;
51459;SDS011;37534;39.772;2.718;2022-09-02T00:12:41;15.23;;;5.05;;
51459;SDS011;37534;39.772;2.718;2022-09-02T00:15:07;22.98;;;4.70;;
51459;SDS011;37534;39.772;2.718;2022-09-02T00:17:33;16.98;;;5.45;;
51459;SDS011;37534;39.772;2.718;2022-09-02T00:19:58;18.88;;;5.88;;
51459;SDS011;37534;39.772;2.718;2022-09-02T00:22:24;33.90;;;5.25;;
51459;SDS011;37534;39.772;2.718;2022-09-02T00:24:49;18.30;;;5.43;;
51459;SDS011;37534;39.772;2.718;2022-09-02T00:27:15;10.18;;;5.03;;
51459;SDS011;37534;39.772;2.718;2022-09-02T00:29:40;37.30;;;6.10;;
51459;SDS011;37534;39.772;2.718;2022-09-02T00:32:06;23.20;;;4.82;;
51459;SDS011;37534;39.772;2.718;2022-09-02T00:34:31;20.92;;;5.80;;
51459;SDS011;37534;39.772;2.718;2022-09-02T00:36:57;17.35;;;4.13;;
51459;SDS011;37534;39.772;2.718;2022-09-02T00:39:22;17.15;;;5.00;;
51459;SDS011;37534;39.772;2.718;2022-09-02T00:41:50;17.52;;;5.70;;
51459;SDS011;37534;39.772;2.718;2022-09-02T00:44:17;18.83;;;5.10;;
51459;SDS011;37534;39.772;2.718;2022-09-02T00:46:44;11.82;;;4.18;;
51459;SDS011;37534;39.772;2.718;2022-09-02T00:49:15;21.98;;;5.07;;
51459;SDS011;37534;39.772;2.718;2022-09-02T00:51:50;21.23;;;5.40;;
51459;SDS011;37534;39.772;2.718;2022-09-02T00:54:27;12.65;;;5.68;;
51459;SDS011;37534;39.772;2.718;2022-09-02T00:56:54;15.02;;;5.10;;
51459;SDS011;37534;39.772;2.718;2022-09-02T00:59:22;15.18;;;5.25;;
51459;SDS011;37534;39.772;2.718;2022-09-02T01:02:09;14.82;;;5.07;;
51459;SDS011;37534;39.772;2.718;2022-09-02T01:04:36;25.30;;;5.47;;
51459;SDS011;37534;39.772;2.718;2022-09-02T01:07:01;25.58;;;5.97;;
51459;SDS011;37534;39.772;2.718;2022-09-02T01:09:28;42.15;;;6.53;;
51459;SDS011;37534;39.772;2.718;2022-09-02T01:11:57;21.10;;;5.38;;
51459;SDS011;37534;39.772;2.718;2022-09-02T01:14:24;35.60;;;6.80;;
51459;SDS011;37534;39.772;2.718;2022-09-02T01:16:54;16.58;;;4.93;;
51459;SDS011;37534;39.772;2.718;2022-09-02T01:19:46;19.17;;;5.70;;
51459;SDS011;37534;39.772;2.718;2022-09-02T01:22:17;12.93;;;4.72;;
51459;SDS011;37534;39.772;2.718;2022-09-02T01:24:45;17.55;;;6.32;;
51459;SDS011;37534;39.772;2.718;2022-09-02T01:27:15;30.13;;;6.25;;
51459;SDS011;37534;39.772;2.718;2022-09-02T01:29:43;17.08;;;4.97;;
51459;SDS011;37534;39.772;2.718;2022-09-02T01:32:09;25.33;;;6.25;;
51459;SDS011;37534;39.772;2.718;2022-09-02T01:34:35;17.55;;;5.60;;
51459;SDS011;37534;39.772;2.718;2022-09-02T01:37:00;18.42;;;6.43;;
51459;SDS011;37534;39.772;2.718;2022-09-02T01:39:26;14.65;;;4.47;;
51459;SDS011;37534;39.772;2.718;2022-09-02T01:41:52;24.85;;;5.88;;
51459;SDS011;37534;39.772;2.718;2022-09-02T01:44:17;14.80;;;5.38;;
51459;SDS011;37534;39.772;2.718;2022-09-02T01:46:43;23.83;;;5.97;;
51459;SDS011;37534;39.772;2.718;2022-09-02T01:49:09;34.38;;;6.72;;
51459;SDS011;37534;39.772;2.718;2022-09-02T01:51:34;15.57;;;5.32;;
51459;SDS011;37534;39.772;2.718;2022-09-02T01:54:01;16.40;;;4.90;;
51459;SDS011;37534;39.772;2.718;2022-09-02T01:56:27;15.13;;;5.95;;
51459;SDS011;37534;39.772;2.718;2022-09-02T01:58:53;13.98;;;4.80;;
51459;SDS011;37534;39.772;2.718;2022-09-02T02:01:19;20.15;;;6.97;;
51459;SDS011;37534;39.772;2.718;2022-09-02T02:03:45;18.10;;;5.85;;
51459;SDS011;37534;39.772;2.718;2022-09-02T02:06:12;29.77;;;6.63;;
51459;SDS011;37534;39.772;2.718;2022-09-02T02:08:41;17.05;;;5.95;;
51459;SDS011;37534;39.772;2.718;2022-09-02T02:11:07;51.95;;;6.72;;
51459;SDS011;37534;39.772;2.718;2022-09-02T02:13:34;19.27;;;5.72;;
51459;SDS011;37534;39.772;2.718;2022-09-02T02:16:00;21.75;;;5.07;;
51459;SDS011;37534;39.772;2.718;2022-09-02T02:18:26;28.58;;;6.40;;
51459;SDS011;37534;39.772;2.718;2022-09-02T02:20:53;17.00;;;4.72;;
51459;SDS011;37534;39.772;2.718;2022-09-02T02:23:20;11.80;;;4.85;;
51459;SDS011;37534;39.772;2.718;2022-09-02T02:25:46;17.50;;;5.95;;
51459;SDS011;37534;39.772;2.718;2022-09-02T02:28:12;24.85;;;6.65;;
51459;SDS011;37534;39.772;2.718;2022-09-02T02:30:38;21.25;;;5.18;;
51459;SDS011;37534;39.772;2.718;2022-09-02T02:33:04;16.85;;;5.18;;
51459;SDS011;37534;39.772;2.718;2022-09-02T02:35:30;37.03;;;7.10;;
51459;SDS011;37534;39.772;2.718;2022-09-02T02:37:55;11.90;;;4.55;;
51459;SDS011;37534;39.772;2.718;2022-09-02T02:40:22;15.70;;;5.20;;
51459;SDS011;37534;39.772;2.718;2022-09-02T02:42:49;13.27;;;4.55;;
51459;SDS011;37534;39.772;2.718;2022-09-02T02:45:17;18.35;;;5.35;;
51459;SDS011;37534;39.772;2.718;2022-09-02T02:47:44;9.70;;;4.25;;
51459;SDS011;37534;39.772;2.718;2022-09-02T02:50:13;10.63;;;4.45;;
51459;SDS011;37534;39.772;2.718;2022-09-02T02:52:41;21.00;;;5.47;;
51459;SDS011;37534;39.772;2.718;2022-09-02T02:55:08;13.40;;;4.65;;
51459;SDS011;37534;39.772;2.718;2022-09-02T02:57:36;19.83;;;5.60;;
51459;SDS011;37534;39.772;2.718;2022-09-02T03:00:28;13.20;;;5.05;;
51459;SDS011;37534;39.772;2.718;2022-09-02T03:02:55;17.75;;;5.13;;
51459;SDS011;37534;39.772;2.718;2022-09-02T03:05:25;28.55;;;4.97;;
51459;SDS011;37534;39.772;2.718;2022-09-02T03:07:52;16.35;;;5.82;;
51459;SDS011;37534;39.772;2.718;2022-09-02T03:10:18;27.17;;;5.85;;
51459;SDS011;37534;39.772;2.718;2022-09-02T03:12:43;28.52;;;5.68;;
51459;SDS011;37534;39.772;2.718;2022-09-02T03:15:11;29.38;;;5.63;;
51459;SDS011;37534;39.772;2.718;2022-09-02T03:17:41;11.00;;;4.82;;
51459;SDS011;37534;39.772;2.718;2022-09-02T03:20:10;26.35;;;5.03;;
51459;SDS011;37534;39.772;2.718;2022-09-02T03:22:36;17.10;;;5.65;;
51459;SDS011;37534;39.772;2.718;2022-09-02T03:25:04;13.82;;;5.32;;
51459;SDS011;37534;39.772;2.718;2022-09-02T03:27:31;12.45;;;4.40;;
51459;SDS011;37534;39.772;2.718;2022-09-02T03:29:58;18.35;;;4.93;;
51459;SDS011;37534;39.772;2.718;2022-09-02T03:32:24;13.63;;;4.88;;
51459;SDS011;37534;39.772;2.718;2022-09-02T03:34:49;15.82;;;5.38;;
51459;SDS011;37534;39.772;2.718;2022-09-02T03:37:15;14.65;;;4.47;;
51459;SDS011;37534;39.772;2.718;2022-09-02T03:39:41;12.18;;;5.25;;
51459;SDS011;37534;39.772;2.718;2022-09-02T03:42:07;19.75;;;5.82;;
51459;SDS011;37534;39.772;2.718;2022-09-02T03:44:32;31.15;;;5.20;;
51459;SDS011;37534;39.772;2.718;2022-09-02T03:46:58;15.25;;;5.18;;
51459;SDS011;37534;39.772;2.718;2022-09-02T03:49:24;12.23;;;5.05;;
51459;SDS011;37534;39.772;2.718;2022-09-02T03:51:51;19.65;;;4.28;;
51459;SDS011;37534;39.772;2.718;2022-09-02T03:54:17;11.00;;;4.40;;
51459;SDS011;37534;39.772;2.718;2022-09-02T03:56:42;29.15;;;5.30;;
51459;SDS011;37534;39.772;2.718;2022-09-02T03:59:08;14.02;;;4.85;;
51459;SDS011;37534;39.772;2.718;2022-09-02T04:01:34;19.85;;;4.93;;
51459;SDS011;37534;39.772;2.718;2022-09-02T04:03:59;15.23;;;4.95;;
51459;SDS011;37534;39.772;2.718;2022-09-02T04:06:26;13.23;;;4.63;;
51459;SDS011;37534;39.772;2.718;2022-09-02T04:08:51;19.67;;;6.13;;
51459;SDS011;37534;39.772;2.718;2022-09-02T04:11:18;11.10;;;5.03;;
51459;SDS011;37534;39.772;2.718;2022-09-02T04:13:45;18.35;;;4.45;;
51459;SDS011;37534;39.772;2.718;2022-09-02T04:16:14;19.25;;;5.57;;
51459;SDS011;37534;39.772;2.718;2022-09-02T04:18:41;15.10;;;4.53;;
51459;SDS011;37534;39.772;2.718;2022-09-02T04:21:08;28.33;;;5.80;;
51459;SDS011;37534;39.772;2.718;2022-09-02T04:23:35;11.02;;;5.53;;
51459;SDS011;37534;39.772;2.718;2022-09-02T04:26:08;23.02;;;5.75;;
51459;SDS011;37534;39.772;2.718;2022-09-02T04:28:36;10.50;;;4.55;;
51459;SDS011;37534;39.772;2.718;2022-09-02T04:31:05;21.00;;;6.60;;
51459;SDS011;37534;39.772;2.718;2022-09-02T04:33:33;15.38;;;5.05;;
51459;SDS011;37534;39.772;2.718;2022-09-02T04:36:00;8.60;;;4.32;;
51459;SDS011;37534;39.772;2.718;2022-09-02T04:38:28;12.07;;;4.65;;
51459;SDS011;37534;39.772;2.718;2022-09-02T04:40:54;23.02;;;5.18;;
51459;SDS011;37534;39.772;2.718;2022-09-02T04:43:19;19.23;;;5.88;;
51459;SDS011;37534;39.772;2.718;2022-09-02T04:45:45;25.55;;;4.85;;
51459;SDS011;37534;39.772;2.718;2022-09-02T04:48:11;15.40;;;4.75;;
51459;SDS011;37534;39.772;2.718;2022-09-02T04:50:40;18.45;;;5.30;;
51459;SDS011;37534;39.772;2.718;2022-09-02T04:53:06;15.93;;;6.00;;
51459;SDS011;37534;39.772;2.718;2022-09-02T04:55:33;17.35;;;5.50;;
51459;SDS011;37534;39.772;2.718;2022-09-02T04:57:59;15.07;;;5.22;;
51459;SDS011;37534;39.772;2.718;2022-09-02T05:00:24;29.23;;;6.30;;
51459;SDS011;37534;39.772;2.718;2022-09-02T05:02:52;14.98;;;5.80;;
51459;SDS011;37534;39.772;2.718;2022-09-02T05:05:18;15.73;;;5.22;;
51459;SDS011;37534;39.772;2.718;2022-09-02T05:07:44;16.85;;;6.15;;
51459;SDS011;37534;39.772;2.718;2022-09-02T05:10:09;24.08;;;5.80;;
51459;SDS011;37534;39.772;2.718;2022-09-02T05:12:39;21.33;;;5.22;;
51459;SDS011;37534;39.772;2.718;2022-09-02T05:15:06;18.75;;;5.65;;
51459;SDS011;37534;39.772;2.718;2022-09-02T05:17:33;18.05;;;4.88;;
51459;SDS011;37534;39.772;2.718;2022-09-02T05:20:01;20.90;;;5.22;;
51459;SDS011;37534;39.772;2.718;2022-09-02T05:22:28;11.88;;;4.55;;
51459;SDS011;37534;39.772;2.718;2022-09-02T05:24:54;26.10;;;6.05;;
51459;SDS011;37534;39.772;2.718;2022-09-02T05:27:20;30.42;;;7.18;;
51459;SDS011;37534;39.772;2.718;2022-09-02T05:29:48;19.05;;;5.85;;
51459;SDS011;37534;39.772;2.718;2022-09-02T05:32:13;19.73;;;6.10;;
51459;SDS011;37534;39.772;2.718;2022-09-02T05:34:39;26.75;;;5.88;;
51459;SDS011;37534;39.772;2.718;2022-09-02T05:37:05;17.20;;;6.25;;
51459;SDS011;37534;39.772;2.718;2022-09-02T05:39:30;17.95;;;5.43;;
51459;SDS011;37534;39.772;2.718;2022-09-02T05:41:56;24.83;;;5.75;;
51459;SDS011;37534;39.772;2.718;2022-09-02T05:44:22;10.65;;;5.15;;
51459;SDS011;37534;39.772;2.718;2022-09-02T05:46:48;17.15;;;6.38;;
51459;SDS011;37534;39.772;2.718;2022-09-02T05:49:13;17.05;;;6.05;;
51459;SDS011;37534;39.772;2.718;2022-09-02T05:51:43;16.23;;;6.25;;
51459;SDS011;37534;39.772;2.718;2022-09-02T05:56:48;20.52;;;8.93;;
51459;SDS011;37534;39.772;2.718;2022-09-02T05:59:17;16.33;;;7.93;;
51459;SDS011;37534;39.772;2.718;2022-09-02T06:01:44;32.75;;;8.32;;
51459;SDS011;37534;39.772;2.718;2022-09-02T06:04:10;15.10;;;5.82;;
51459;SDS011;37534;39.772;2.718;2022-09-02T06:06:35;21.33;;;6.55;;
51459;SDS011;37534;39.772;2.718;2022-09-02T06:09:05;28.00;;;6.43;;
51459;SDS011;37534;39.772;2.718;2022-09-02T06:11:34;32.10;;;9.10;;
51459;SDS011;37534;39.772;2.718;2022-09-02T06:14:04;35.85;;;6.95;;
51459;SDS011;37534;39.772;2.718;2022-09-02T06:16:32;19.38;;;5.72;;
51459;SDS011;37534;39.772;2.718;2022-09-02T06:18:58;21.42;;;5.43;;
51459;SDS011;37534;39.772;2.718;2022-09-02T06:21:24;18.35;;;6.13;;
51459;SDS011;37534;39.772;2.718;2022-09-02T06:23:50;28.30;;;7.82;;
51459;SDS011;37534;39.772;2.718;2022-09-02T06:26:16;18.25;;;8.88;;
51459;SDS011;37534;39.772;2.718;2022-09-02T06:28:42;28.58;;;15.23;;
51459;SDS011;37534;39.772;2.718;2022-09-02T06:31:10;20.90;;;11.52;;
51459;SDS011;37534;39.772;2.718;2022-09-02T06:33:39;30.67;;;11.70;;
51459;SDS011;37534;39.772;2.718;2022-09-02T06:36:09;17.90;;;8.25;;
51459;SDS011;37534;39.772;2.718;2022-09-02T06:38:38;18.92;;;7.05;;
51459;SDS011;37534;39.772;2.718;2022-09-02T06:41:06;35.90;;;14.90;;
51459;SDS011;37534;39.772;2.718;2022-09-02T06:43:34;33.42;;;12.75;;
51459;SDS011;37534;39.772;2.718;2022-09-02T06:46:00;22.63;;;10.25;;
51459;SDS011;37534;39.772;2.718;2022-09-02T06:48:25;24.77;;;10.43;;
51459;SDS011;37534;39.772;2.718;2022-09-02T06:50:51;33.25;;;11.35;;
51459;SDS011;37534;39.772;2.718;2022-09-02T06:53:16;27.60;;;9.05;;
51459;SDS011;37534;39.772;2.718;2022-09-02T06:55:43;25.30;;;11.43;;
51459;SDS011;37534;39.772;2.718;2022-09-02T06:58:10;19.45;;;8.50;;
51459;SDS011;37534;39.772;2.718;2022-09-02T07:00:37;18.10;;;7.05;;
51459;SDS011;37534;39.772;2.718;2022-09-02T07:03:03;16.95;;;7.40;;
51459;SDS011;37534;39.772;2.718;2022-09-02T07:06:09;14.70;;;5.60;;
51459;SDS011;37534;39.772;2.718;2022-09-02T07:08:38;23.60;;;6.60;;
51459;SDS011;37534;39.772;2.718;2022-09-02T07:11:06;16.50;;;7.07;;
51459;SDS011;37534;39.772;2.718;2022-09-02T07:13:39;20.35;;;7.63;;
51459;SDS011;37534;39.772;2.718;2022-09-02T07:16:05;23.85;;;6.88;;
51459;SDS011;37534;39.772;2.718;2022-09-02T07:18:31;25.88;;;6.78;;
51459;SDS011;37534;39.772;2.718;2022-09-02T07:20:57;18.75;;;7.68;;
51459;SDS011;37534;39.772;2.718;2022-09-02T07:23:23;30.00;;;8.07;;
51459;SDS011;37534;39.772;2.718;2022-09-02T07:25:49;25.70;;;9.52;;
51459;SDS011;37534;39.772;2.718;2022-09-02T07:28:14;14.85;;;7.68;;
51459;SDS011;37534;39.772;2.718;2022-09-02T07:30:41;29.25;;;8.10;;
51459;SDS011;37534;39.772;2.718;2022-09-02T07:33:07;20.15;;;7.45;;
51459;SDS011;37534;39.772;2.718;2022-09-02T07:35:33;19.67;;;8.50;;
51459;SDS011;37534;39.772;2.718;2022-09-02T07:38:00;22.48;;;7.93;;
51459;SDS011;37534;39.772;2.718;2022-09-02T07:40:28;20.60;;;7.22;;
51459;SDS011;37534;39.772;2.718;2022-09-02T07:42:54;18.60;;;8.30;;
51459;SDS011;37534;39.772;2.718;2022-09-02T07:45:19;25.70;;;7.93;;
51459;SDS011;37534;39.772;2.718;2022-09-02T07:47:45;18.00;;;10.23;;
51459;SDS011;37534;39.772;2.718;2022-09-02T07:50:13;27.63;;;11.15;;
51459;SDS011;37534;39.772;2.718;2022-09-02T07:52:38;28.13;;;8.82;;
51459;SDS011;37534;39.772;2.718;2022-09-02T07:55:04;25.08;;;9.57;;
51459;SDS011;37534;39.772;2.718;2022-09-02T07:57:30;35.22;;;9.27;;
51459;SDS011;37534;39.772;2.718;2022-09-02T07:59:56;21.20;;;7.65;;
51459;SDS011;37534;39.772;2.718;2022-09-02T08:02:21;22.40;;;7.35;;
51459;SDS011;37534;39.772;2.718;2022-09-02T08:04:48;19.35;;;7.15;;
51459;SDS011;37534;39.772;2.718;2022-09-02T08:07:14;19.05;;;7.43;;
51459;SDS011;37534;39.772;2.718;2022-09-02T08:09:42;20.52;;;6.47;;
51459;SDS011;37534;39.772;2.718;2022-09-02T08:12:08;33.72;;;7.68;;
51459;SDS011;37534;39.772;2.718;2022-09-02T08:14:34;17.17;;;6.90;;
51459;SDS011;37534;39.772;2.718;2022-09-02T08:16:59;17.02;;;6.45;;
51459;SDS011;37534;39.772;2.718;2022-09-02T08:19:25;23.25;;;6.65;;
51459;SDS011;37534;39.772;2.718;2022-09-02T08:21:51;17.38;;;6.78;;
51459;SDS011;37534;39.772;2.718;2022-09-02T08:24:17;35.17;;;6.60;;
51459;SDS011;37534;39.772;2.718;2022-09-02T08:26:42;29.98;;;7.47;;
51459;SDS011;37534;39.772;2.718;2022-09-02T08:29:08;21.60;;;5.90;;
51459;SDS011;37534;39.772;2.718;2022-09-02T08:31:37;14.88;;;5.57;;
51459;SDS011;37534;39.772;2.718;2022-09-02T08:34:02;23.08;;;8.65;;
51459;SDS011;37534;39.772;2.718;2022-09-02T08:36:28;22.55;;;6.85;;
51459;SDS011;37534;39.772;2.718;2022-09-02T08:38:54;28.38;;;7.47;;
51459;SDS011;37534;39.772;2.718;2022-09-02T08:43:58;32.05;;;8.18;;
51459;SDS011;37534;39.772;2.718;2022-09-02T08:46:26;18.48;;;6.72;;
51459;SDS011;37534;39.772;2.718;2022-09-02T08:48:59;22.33;;;6.32;;
51459;SDS011;37534;39.772;2.718;2022-09-02T08:51:29;36.55;;;8.05;;
51459;SDS011;37534;39.772;2.718;2022-09-02T08:56:29;31.55;;;7.45;;
51459;SDS011;37534;39.772;2.718;2022-09-02T08:58:56;25.02;;;7.03;;
51459;SDS011;37534;39.772;2.718;2022-09-02T09:09:57;19.75;;;6.30;;
51459;SDS011;37534;39.772;2.718;2022-09-02T09:15:28;29.27;;;7.20;;
51459;SDS011;37534;39.772;2.718;2022-09-02T09:18:01;31.33;;;6.22;;
51459;SDS011;37534;39.772;2.718;2022-09-02T09:20:32;14.10;;;5.85;;
51459;SDS011;37534;39.772;2.718;2022-09-02T09:23:04;28.77;;;5.25;;
51459;SDS011;37534;39.772;2.718;2022-09-02T09:25:42;16.52;;;5.40;;
51459;SDS011;37534;39.772;2.718;2022-09-02T09:28:12;26.33;;;6.95;;
51459;SDS011;37534;39.772;2.718;2022-09-02T09:30:38;15.05;;;5.00;;
51459;SDS011;37534;39.772;2.718;2022-09-02T09:33:04;20.35;;;6.70;;
51459;SDS011;37534;39.772;2.718;2022-09-02T09:38:31;23.58;;;5.35;;
51459;SDS011;37534;39.772;2.718;2022-09-02T09:41:18;12.30;;;4.35;;
51459;SDS011;37534;39.772;2.718;2022-09-02T09:43:48;25.40;;;6.15;;
51459;SDS011;37534;39.772;2.718;2022-09-02T09:46:27;18.98;;;5.32;;
51459;SDS011;37534;39.772;2.718;2022-09-02T09:48:56;17.08;;;4.95;;
51459;SDS011;37534;39.772;2.718;2022-09-02T09:51:22;14.43;;;4.95;;
51459;SDS011;37534;39.772;2.718;2022-09-02T09:53:47;23.45;;;5.93;;
51459;SDS011;37534;39.772;2.718;2022-09-02T10:01:24;17.73;;;5.82;;
51459;SDS011;37534;39.772;2.718;2022-09-02T10:06:36;14.23;;;4.82;;
51459;SDS011;37534;39.772;2.718;2022-09-02T10:12:16;22.83;;;5.45;;
51459;SDS011;37534;39.772;2.718;2022-09-02T10:14:45;17.90;;;5.18;;
51459;SDS011;37534;39.772;2.718;2022-09-02T10:19:49;15.40;;;5.82;;
51459;SDS011;37534;39.772;2.718;2022-09-02T10:22:32;16.20;;;5.15;;
51459;SDS011;37534;39.772;2.718;2022-09-02T10:37:20;22.70;;;5.85;;
51459;SDS011;37534;39.772;2.718;2022-09-02T10:39:53;24.10;;;5.53;;
51459;SDS011;37534;39.772;2.718;2022-09-02T10:42:30;12.38;;;4.68;;
51459;SDS011;37534;39.772;2.718;2022-09-02T10:47:33;16.65;;;5.22;;
51459;SDS011;37534;39.772;2.718;2022-09-02T10:57:59;21.90;;;5.78;;
51459;SDS011;37534;39.772;2.718;2022-09-02T11:01:12;18.75;;;5.15;;
51459;SDS011;37534;39.772;2.718;2022-09-02T11:06:42;17.55;;;4.95;;
51459;SDS011;37534;39.772;2.718;2022-09-02T11:11:53;13.70;;;5.75;;
51459;SDS011;37534;39.772;2.718;2022-09-02T11:17:43;25.25;;;5.95;;
51459;SDS011;37534;39.772;2.718;2022-09-02T11:20:27;15.35;;;5.47;;
51459;SDS011;37534;39.772;2.718;2022-09-02T11:31:39;28.00;;;6.43;;
51459;SDS011;37534;39.772;2.718;2022-09-02T11:37:07;24.67;;;4.50;;
51459;SDS011;37534;39.772;2.718;2022-09-02T11:39:40;26.25;;;5.68;;
51459;SDS011;37534;39.772;2.718;2022-09-02T11:42:38;15.30;;;5.43;;
51459;SDS011;37534;39.772;2.718;2022-09-02T11:53:36;20.70;;;4.35;;
51459;SDS011;37534;39.772;2.718;2022-09-02T11:58:49;18.08;;;5.35;;
51459;SDS011;37534;39.772;2.718;2022-09-02T12:01:26;14.55;;;4.70;;
51459;SDS011;37534;39.772;2.718;2022-09-02T12:06:29;16.33;;;4.85;;
51459;SDS011;37534;39.772;2.718;2022-09-02T12:08:57;24.60;;;5.88;;
51459;SDS011;37534;39.772;2.718;2022-09-02T12:14:05;21.85;;;5.38;;
51459;SDS011;37534;39.772;2.718;2022-09-02T12:16:39;9.82;;;3.85;;
51459;SDS011;37534;39.772;2.718;2022-09-02T12:21:35;19.15;;;4.68;;
51459;SDS011;37534;39.772;2.718;2022-09-02T12:27:28;11.85;;;4.53;;
51459;SDS011;37534;39.772;2.718;2022-09-02T12:29:57;22.08;;;4.85;;
51459;SDS011;37534;39.772;2.718;2022-09-02T12:35:51;11.95;;;4.63;;
51459;SDS011;37534;39.772;2.718;2022-09-02T12:40:38;13.95;;;4.47;;
51459;SDS011;37534;39.772;2.718;2022-09-02T12:45:53;18.75;;;5.32;;
51459;SDS011;37534;39.772;2.718;2022-09-02T12:48:32;12.02;;;4.97;;
51459;SDS011;37534;39.772;2.718;2022-09-02T12:51:06;12.27;;;4.22;;
51459;SDS011;37534;39.772;2.718;2022-09-02T12:53:42;17.10;;;5.25;;
51459;SDS011;37534;39.772;2.718;2022-09-02T12:56:20;15.07;;;4.85;;
51459;SDS011;37534;39.772;2.718;2022-09-02T12:58:51;19.67;;;5.13;;
51459;SDS011;37534;39.772;2.718;2022-09-02T13:08:21;16.80;;;5.38;;
51459;SDS011;37534;39.772;2.718;2022-09-02T13:22:21;21.75;;;5.75;;
51459;SDS011;37534;39.772;2.718;2022-09-02T13:33:19;15.32;;;5.13;;
51459;SDS011;37534;39.772;2.718;2022-09-02T13:35:45;13.88;;;5.05;;
51459;SDS011;37534;39.772;2.718;2022-09-02T13:38:21;26.13;;;5.55;;
51459;SDS011;37534;39.772;2.718;2022-09-02T13:40:48;16.05;;;5.30;;
51459;SDS011;37534;39.772;2.718;2022-09-02T13:45:42;24.65;;;5.63;;
51459;SDS011;37534;39.772;2.718;2022-09-02T13:48:17;27.48;;;5.38;;
51459;SDS011;37534;39.772;2.718;2022-09-02T13:50:48;25.73;;;5.90;;
51459;SDS011;37534;39.772;2.718;2022-09-02T13:56:12;18.30;;;5.03;;
51459;SDS011;37534;39.772;2.718;2022-09-02T13:58:46;15.43;;;5.53;;
51459;SDS011;37534;39.772;2.718;2022-09-02T14:01:33;24.45;;;5.05;;
51459;SDS011;37534;39.772;2.718;2022-09-02T14:04:02;15.45;;;4.53;;
51459;SDS011;37534;39.772;2.718;2022-09-02T14:06:32;13.02;;;5.03;;
51459;SDS011;37534;39.772;2.718;2022-09-02T14:09:01;22.35;;;4.63;;
51459;SDS011;37534;39.772;2.718;2022-09-02T14:11:35;16.30;;;6.03;;
51459;SDS011;37534;39.772;2.718;2022-09-02T14:14:07;25.02;;;6.20;;
51459;SDS011;37534;39.772;2.718;2022-09-02T14:16:37;20.55;;;6.13;;
51459;SDS011;37534;39.772;2.718;2022-09-02T14:21:53;21.05;;;5.50;;
51459;SDS011;37534;39.772;2.718;2022-09-02T14:24:25;20.67;;;5.35;;
51459;SDS011;37534;39.772;2.718;2022-09-02T14:26:53;19.08;;;5.10;;
51459;SDS011;37534;39.772;2.718;2022-09-02T14:29:23;19.10;;;5.72;;
51459;SDS011;37534;39.772;2.718;2022-09-02T14:32:05;27.55;;;6.43;;
51459;SDS011;37534;39.772;2.718;2022-09-02T14:34:37;27.48;;;6.63;;
51459;SDS011;37534;39.772;2.718;2022-09-02T14:40:04;21.50;;;6.28;;
51459;SDS011;37534;39.772;2.718;2022-09-02T14:42:44;20.90;;;5.90;;
51459;SDS011;37534;39.772;2.718;2022-09-02T14:45:12;20.70;;;5.43;;
51459;SDS011;37534;39.772;2.718;2022-09-02T14:47:38;16.85;;;6.32;;
51459;SDS011;37534;39.772;2.718;2022-09-02T14:50:11;22.33;;;6.03;;
51459;SDS011;37534;39.772;2.718;2022-09-02T14:52:46;12.65;;;4.88;;
51459;SDS011;37534;39.772;2.718;2022-09-02T14:58:08;23.38;;;5.53;;
51459;SDS011;37534;39.772;2.718;2022-09-02T15:00:33;20.50;;;4.93;;
51459;SDS011;37534;39.772;2.718;2022-09-02T15:02:59;23.42;;;6.18;;
51459;SDS011;37534;39.772;2.718;2022-09-02T15:05:24;26.70;;;6.40;;
51459;SDS011;37534;39.772;2.718;2022-09-02T15:07:50;28.02;;;6.97;;
51459;SDS011;37534;39.772;2.718;2022-09-02T15:10:16;17.02;;;5.70;;
51459;SDS011;37534;39.772;2.718;2022-09-02T15:12:45;22.65;;;6.38;;
51459;SDS011;37534;39.772;2.718;2022-09-02T15:15:14;18.52;;;6.20;;
51459;SDS011;37534;39.772;2.718;2022-09-02T15:17:40;16.45;;;6.03;;
51459;SDS011;37534;39.772;2.718;2022-09-02T15:20:05;37.65;;;7.45;;
51459;SDS011;37534;39.772;2.718;2022-09-02T15:22:32;19.05;;;6.55;;
51459;SDS011;37534;39.772;2.718;2022-09-02T15:24:58;24.98;;;7.53;;
51459;SDS011;37534;39.772;2.718;2022-09-02T15:27:24;14.82;;;5.53;;
51459;SDS011;37534;39.772;2.718;2022-09-02T15:29:50;28.23;;;5.82;;
51459;SDS011;37534;39.772;2.718;2022-09-02T15:32:16;24.08;;;6.80;;
51459;SDS011;37534;39.772;2.718;2022-09-02T15:34:41;27.02;;;6.55;;
51459;SDS011;37534;39.772;2.718;2022-09-02T15:37:07;16.83;;;6.80;;
51459;SDS011;37534;39.772;2.718;2022-09-02T15:39:32;20.92;;;5.60;;
51459;SDS011;37534;39.772;2.718;2022-09-02T15:41:58;22.73;;;6.18;;
51459;SDS011;37534;39.772;2.718;2022-09-02T15:44:24;23.10;;;6.13;;
51459;SDS011;37534;39.772;2.718;2022-09-02T15:46:54;27.13;;;6.20;;
51459;SDS011;37534;39.772;2.718;2022-09-02T15:49:20;38.47;;;7.68;;
51459;SDS011;37534;39.772;2.718;2022-09-02T15:51:47;21.10;;;6.93;;
51459;SDS011;37534;39.772;2.718;2022-09-02T15:54:17;21.30;;;6.75;;
51459;SDS011;37534;39.772;2.718;2022-09-02T15:56:44;29.25;;;6.88;;
51459;SDS011;37534;39.772;2.718;2022-09-02T15:59:12;16.48;;;6.03;;
51459;SDS011;37534;39.772;2.718;2022-09-02T16:01:45;24.45;;;5.60;;
51459;SDS011;37534;39.772;2.718;2022-09-02T16:04:15;19.98;;;6.88;;
51459;SDS011;37534;39.772;2.718;2022-09-02T16:06:42;16.83;;;5.63;;
51459;SDS011;37534;39.772;2.718;2022-09-02T16:09:12;20.60;;;5.80;;
51459;SDS011;37534;39.772;2.718;2022-09-02T16:11:45;28.13;;;5.75;;
51459;SDS011;37534;39.772;2.718;2022-09-02T16:14:12;26.92;;;5.55;;
51459;SDS011;37534;39.772;2.718;2022-09-02T16:16:39;20.17;;;5.22;;
51459;SDS011;37534;39.772;2.718;2022-09-02T16:19:06;16.20;;;5.35;;
51459;SDS011;37534;39.772;2.718;2022-09-02T16:21:32;19.80;;;4.72;;
51459;SDS011;37534;39.772;2.718;2022-09-02T16:23:59;16.58;;;4.50;;
51459;SDS011;37534;39.772;2.718;2022-09-02T16:28:51;17.52;;;4.78;;
51459;SDS011;37534;39.772;2.718;2022-09-02T16:31:21;18.40;;;4.90;;
51459;SDS011;37534;39.772;2.718;2022-09-02T16:33:59;14.38;;;4.55;;
51459;SDS011;37534;39.772;2.718;2022-09-02T16:36:26;16.65;;;4.65;;
51459;SDS011;37534;39.772;2.718;2022-09-02T16:38:53;17.27;;;5.38;;
51459;SDS011;37534;39.772;2.718;2022-09-02T16:43:50;14.77;;;5.63;;
51459;SDS011;37534;39.772;2.718;2022-09-02T16:46:15;18.48;;;5.15;;
51459;SDS011;37534;39.772;2.718;2022-09-02T16:48:41;15.13;;;5.20;;
51459;SDS011;37534;39.772;2.718;2022-09-02T16:51:07;20.23;;;5.07;;
51459;SDS011;37534;39.772;2.718;2022-09-02T16:53:32;11.77;;;4.90;;
51459;SDS011;37534;39.772;2.718;2022-09-02T16:55:58;11.88;;;4.82;;
51459;SDS011;37534;39.772;2.718;2022-09-02T16:58:24;15.23;;;4.32;;
51459;SDS011;37534;39.772;2.718;2022-09-02T17:00:50;10.82;;;4.68;;
51459;SDS011;37534;39.772;2.718;2022-09-02T17:03:15;8.27;;;4.30;;
51459;SDS011;37534;39.772;2.718;2022-09-02T17:05:41;13.55;;;4.43;;
51459;SDS011;37534;39.772;2.718;2022-09-02T17:08:08;22.52;;;5.05;;
51459;SDS011;37534;39.772;2.718;2022-09-02T17:10:33;11.07;;;3.92;;
51459;SDS011;37534;39.772;2.718;2022-09-02T17:12:59;11.70;;;4.22;;
51459;SDS011;37534;39.772;2.718;2022-09-02T17:15:26;13.68;;;4.20;;